sensor_id;sensor_type;location;lat;lon;timestamp;P1;durP1;ratioP1;P2;durP2;ratioP2
50363;SDS011;36272;59.400;17.982;2023-11-21T00:01:36;31.48;;;8.43;;
50363;SDS011;36272;59.400;17.982;2023-11-21T00:06:38;22.60;;;8.77;;
50363;SDS011;36272;59.400;17.982;2023-11-21T00:11:39;21.60;;;8.02;;
50363;SDS011;36272;59.400;17.982;2023-11-21T00:16:41;64.80;;;9.57;;
50363;SDS011;36272;59.400;17.982;2023-11-21T00:21:43;18.85;;;8.23;;
50363;SDS011;36272;59.400;17.982;2023-11-21T00:26:45;16.17;;;8.43;;
50363;SDS011;36272;59.400;17.982;2023-11-21T00:31:49;39.60;;;7.97;;
50363;SDS011;36272;59.400;17.982;2023-11-21T00:36:51;29.88;;;7.15;;
50363;SDS011;36272;59.400;17.982;2023-11-21T00:41:52;27.00;;;7.20;;
50363;SDS011;36272;59.400;17.982;2023-11-21T00:46:54;13.65;;;6.10;;
50363;SDS011;36272;59.400;17.982;2023-11-21T00:51:56;13.05;;;6.80;;
50363;SDS011;36272;59.400;17.982;2023-11-21T00:56:59;14.90;;;6.97;;
50363;SDS011;36272;59.400;17.982;2023-11-21T01:02:00;15.32;;;7.78;;
50363;SDS011;36272;59.400;17.982;2023-11-21T01:07:03;12.73;;;6.47;;
50363;SDS011;36272;59.400;17.982;2023-11-21T01:12:06;21.30;;;8.35;;
50363;SDS011;36272;59.400;17.982;2023-11-21T01:17:08;16.13;;;7.88;;
50363;SDS011;36272;59.400;17.982;2023-11-21T01:22:09;16.00;;;7.82;;
50363;SDS011;36272;59.400;17.982;2023-11-21T01:27:13;20.67;;;8.43;;
50363;SDS011;36272;59.400;17.982;2023-11-21T01:32:14;14.55;;;7.78;;
50363;SDS011;36272;59.400;17.982;2023-11-21T01:37:16;17.42;;;7.60;;
50363;SDS011;36272;59.400;17.982;2023-11-21T01:42:18;24.17;;;8.25;;
50363;SDS011;36272;59.400;17.982;2023-11-21T01:47:20;20.83;;;8.13;;
50363;SDS011;36272;59.400;17.982;2023-11-21T01:52:22;13.80;;;7.63;;
50363;SDS011;36272;59.400;17.982;2023-11-21T01:57:24;14.35;;;7.47;;
50363;SDS011;36272;59.400;17.982;2023-11-21T02:02:26;15.02;;;8.10;;
50363;SDS011;36272;59.400;17.982;2023-11-21T02:07:28;13.77;;;7.80;;
50363;SDS011;36272;59.400;17.982;2023-11-21T02:12:29;14.43;;;8.40;;
50363;SDS011;36272;59.400;17.982;2023-11-21T02:17:31;13.98;;;7.93;;
50363;SDS011;36272;59.400;17.982;2023-11-21T02:22:33;13.73;;;7.63;;
50363;SDS011;36272;59.400;17.982;2023-11-21T02:27:42;15.30;;;8.68;;
50363;SDS011;36272;59.400;17.982;2023-11-21T02:32:49;16.38;;;8.73;;
50363;SDS011;36272;59.400;17.982;2023-11-21T02:37:51;15.38;;;8.52;;
50363;SDS011;36272;59.400;17.982;2023-11-21T02:42:56;14.25;;;7.85;;
50363;SDS011;36272;59.400;17.982;2023-11-21T02:48:00;15.88;;;8.45;;
50363;SDS011;36272;59.400;17.982;2023-11-21T02:53:01;15.15;;;8.48;;
50363;SDS011;36272;59.400;17.982;2023-11-21T02:58:03;15.73;;;8.48;;
50363;SDS011;36272;59.400;17.982;2023-11-21T03:03:07;15.27;;;8.23;;
50363;SDS011;36272;59.400;17.982;2023-11-21T03:08:09;20.48;;;9.40;;
50363;SDS011;36272;59.400;17.982;2023-11-21T03:13:11;16.02;;;8.95;;
50363;SDS011;36272;59.400;17.982;2023-11-21T03:18:12;15.55;;;9.00;;
50363;SDS011;36272;59.400;17.982;2023-11-21T03:23:14;16.50;;;8.80;;
50363;SDS011;36272;59.400;17.982;2023-11-21T03:28:16;17.85;;;9.07;;
50363;SDS011;36272;59.400;17.982;2023-11-21T03:33:18;16.73;;;8.98;;
50363;SDS011;36272;59.400;17.982;2023-11-21T03:38:19;18.65;;;10.07;;
50363;SDS011;36272;59.400;17.982;2023-11-21T03:43:21;17.52;;;10.15;;
50363;SDS011;36272;59.400;17.982;2023-11-21T03:48:23;18.00;;;9.50;;
50363;SDS011;36272;59.400;17.982;2023-11-21T03:53:24;14.73;;;8.27;;
50363;SDS011;36272;59.400;17.982;2023-11-21T03:58:26;14.98;;;8.43;;
50363;SDS011;36272;59.400;17.982;2023-11-21T04:03:27;15.43;;;7.80;;
50363;SDS011;36272;59.400;17.982;2023-11-21T04:08:29;12.80;;;7.68;;
50363;SDS011;36272;59.400;17.982;2023-11-21T04:13:31;13.27;;;7.85;;
50363;SDS011;36272;59.400;17.982;2023-11-21T04:18:33;12.52;;;7.93;;
50363;SDS011;36272;59.400;17.982;2023-11-21T04:23:35;11.50;;;7.43;;
50363;SDS011;36272;59.400;17.982;2023-11-21T04:28:37;12.20;;;6.43;;
50363;SDS011;36272;59.400;17.982;2023-11-21T04:33:38;11.48;;;7.40;;
50363;SDS011;36272;59.400;17.982;2023-11-21T04:38:40;10.13;;;7.00;;
50363;SDS011;36272;59.400;17.982;2023-11-21T04:43:42;10.10;;;7.28;;
50363;SDS011;36272;59.400;17.982;2023-11-21T04:48:43;11.35;;;7.20;;
50363;SDS011;36272;59.400;17.982;2023-11-21T04:53:45;9.68;;;6.63;;
50363;SDS011;36272;59.400;17.982;2023-11-21T04:58:47;10.38;;;6.78;;
50363;SDS011;36272;59.400;17.982;2023-11-21T05:03:48;11.05;;;7.35;;
50363;SDS011;36272;59.400;17.982;2023-11-21T05:08:50;10.30;;;6.53;;
50363;SDS011;36272;59.400;17.982;2023-11-21T05:13:51;9.43;;;6.40;;
50363;SDS011;36272;59.400;17.982;2023-11-21T05:18:56;8.20;;;6.00;;
50363;SDS011;36272;59.400;17.982;2023-11-21T05:24:01;9.23;;;6.03;;
50363;SDS011;36272;59.400;17.982;2023-11-21T05:29:03;10.02;;;6.28;;
50363;SDS011;36272;59.400;17.982;2023-11-21T05:34:04;9.25;;;5.75;;
50363;SDS011;36272;59.400;17.982;2023-11-21T05:39:09;8.10;;;5.55;;
50363;SDS011;36272;59.400;17.982;2023-11-21T05:44:12;8.27;;;5.40;;
50363;SDS011;36272;59.400;17.982;2023-11-21T05:49:15;8.18;;;4.97;;
50363;SDS011;36272;59.400;17.982;2023-11-21T05:54:17;7.85;;;5.57;;
50363;SDS011;36272;59.400;17.982;2023-11-21T05:59:19;7.72;;;5.68;;
50363;SDS011;36272;59.400;17.982;2023-11-21T06:04:21;7.13;;;5.50;;
50363;SDS011;36272;59.400;17.982;2023-11-21T06:09:25;7.95;;;5.13;;
50363;SDS011;36272;59.400;17.982;2023-11-21T06:14:26;9.10;;;5.82;;
50363;SDS011;36272;59.400;17.982;2023-11-21T06:19:28;8.30;;;6.05;;
50363;SDS011;36272;59.400;17.982;2023-11-21T06:24:32;8.82;;;6.20;;
50363;SDS011;36272;59.400;17.982;2023-11-21T06:29:34;8.63;;;5.90;;
50363;SDS011;36272;59.400;17.982;2023-11-21T06:34:36;8.23;;;6.07;;
50363;SDS011;36272;59.400;17.982;2023-11-21T06:39:37;9.73;;;5.97;;
50363;SDS011;36272;59.400;17.982;2023-11-21T06:44:39;10.25;;;5.70;;
50363;SDS011;36272;59.400;17.982;2023-11-21T06:49:42;7.97;;;6.10;;
50363;SDS011;36272;59.400;17.982;2023-11-21T06:54:44;7.43;;;5.57;;
50363;SDS011;36272;59.400;17.982;2023-11-21T06:59:46;8.60;;;5.63;;
50363;SDS011;36272;59.400;17.982;2023-11-21T07:04:48;7.85;;;5.70;;
50363;SDS011;36272;59.400;17.982;2023-11-21T07:09:49;8.75;;;5.45;;
50363;SDS011;36272;59.400;17.982;2023-11-21T07:14:53;7.43;;;5.57;;
50363;SDS011;36272;59.400;17.982;2023-11-21T07:19:57;7.38;;;5.53;;
50363;SDS011;36272;59.400;17.982;2023-11-21T07:24:59;8.63;;;5.57;;
50363;SDS011;36272;59.400;17.982;2023-11-21T07:30:00;10.20;;;5.93;;
50363;SDS011;36272;59.400;17.982;2023-11-21T07:35:05;8.30;;;5.33;;
50363;SDS011;36272;59.400;17.982;2023-11-21T07:40:09;6.85;;;5.00;;
50363;SDS011;36272;59.400;17.982;2023-11-21T07:45:12;8.50;;;4.82;;
50363;SDS011;36272;59.400;17.982;2023-11-21T07:50:14;7.35;;;5.47;;
50363;SDS011;36272;59.400;17.982;2023-11-21T07:55:15;9.13;;;5.78;;
50363;SDS011;36272;59.400;17.982;2023-11-21T08:00:20;8.10;;;5.10;;
50363;SDS011;36272;59.400;17.982;2023-11-21T08:05:22;10.23;;;6.17;;
50363;SDS011;36272;59.400;17.982;2023-11-21T08:10:24;10.85;;;5.85;;
50363;SDS011;36272;59.400;17.982;2023-11-21T08:15:26;8.88;;;5.40;;
50363;SDS011;36272;59.400;17.982;2023-11-21T08:20:27;8.65;;;5.70;;
50363;SDS011;36272;59.400;17.982;2023-11-21T08:25:29;9.90;;;6.13;;
50363;SDS011;36272;59.400;17.982;2023-11-21T08:30:31;10.13;;;6.30;;
50363;SDS011;36272;59.400;17.982;2023-11-21T08:35:33;12.90;;;7.28;;
50363;SDS011;36272;59.400;17.982;2023-11-21T08:40:35;12.18;;;6.65;;
50363;SDS011;36272;59.400;17.982;2023-11-21T08:45:37;11.40;;;6.15;;
50363;SDS011;36272;59.400;17.982;2023-11-21T08:50:39;7.63;;;5.30;;
50363;SDS011;36272;59.400;17.982;2023-11-21T08:55:43;12.88;;;5.95;;
50363;SDS011;36272;59.400;17.982;2023-11-21T09:00:45;6.00;;;4.28;;
50363;SDS011;36272;59.400;17.982;2023-11-21T09:05:47;6.90;;;4.45;;
50363;SDS011;36272;59.400;17.982;2023-11-21T09:10:49;7.75;;;3.90;;
50363;SDS011;36272;59.400;17.982;2023-11-21T09:27:39;4.95;;;3.47;;
50363;SDS011;36272;59.400;17.982;2023-11-21T09:32:41;6.63;;;4.47;;
50363;SDS011;36272;59.400;17.982;2023-11-21T09:37:46;4.47;;;2.88;;
50363;SDS011;36272;59.400;17.982;2023-11-21T09:42:57;9.77;;;4.10;;
50363;SDS011;36272;59.400;17.982;2023-11-21T09:47:59;5.40;;;4.20;;
50363;SDS011;36272;59.400;17.982;2023-11-21T09:58:21;5.93;;;4.57;;
50363;SDS011;36272;59.400;17.982;2023-11-21T10:03:24;5.88;;;4.22;;
50363;SDS011;36272;59.400;17.982;2023-11-21T10:08:28;6.05;;;4.35;;
50363;SDS011;36272;59.400;17.982;2023-11-21T10:13:30;5.63;;;4.20;;
50363;SDS011;36272;59.400;17.982;2023-11-21T10:18:34;7.32;;;4.47;;
50363;SDS011;36272;59.400;17.982;2023-11-21T10:23:41;6.82;;;4.32;;
50363;SDS011;36272;59.400;17.982;2023-11-21T10:34:17;8.88;;;4.85;;
50363;SDS011;36272;59.400;17.982;2023-11-21T10:39:20;7.53;;;4.70;;
50363;SDS011;36272;59.400;17.982;2023-11-21T10:44:24;6.82;;;4.80;;
50363;SDS011;36272;59.400;17.982;2023-11-21T10:49:28;6.47;;;4.80;;
50363;SDS011;36272;59.400;17.982;2023-11-21T10:54:30;8.73;;;4.90;;
50363;SDS011;36272;59.400;17.982;2023-11-21T10:59:32;13.82;;;4.95;;
50363;SDS011;36272;59.400;17.982;2023-11-21T11:04:34;7.28;;;4.95;;
50363;SDS011;36272;59.400;17.982;2023-11-21T11:09:39;6.03;;;4.00;;
50363;SDS011;36272;59.400;17.982;2023-11-21T11:14:45;6.85;;;4.47;;
50363;SDS011;36272;59.400;17.982;2023-11-21T11:19:49;7.55;;;4.90;;
50363;SDS011;36272;59.400;17.982;2023-11-21T11:25:01;6.68;;;4.75;;
50363;SDS011;36272;59.400;17.982;2023-11-21T11:41:07;9.00;;;5.53;;
50363;SDS011;36272;59.400;17.982;2023-11-21T11:46:11;9.00;;;5.18;;
50363;SDS011;36272;59.400;17.982;2023-11-21T11:51:16;9.02;;;5.60;;
50363;SDS011;36272;59.400;17.982;2023-11-21T11:56:26;7.60;;;5.35;;
50363;SDS011;36272;59.400;17.982;2023-11-21T12:01:32;8.20;;;5.25;;
50363;SDS011;36272;59.400;17.982;2023-11-21T12:06:34;6.22;;;4.32;;
50363;SDS011;36272;59.400;17.982;2023-11-21T12:11:36;7.40;;;5.00;;
50363;SDS011;36272;59.400;17.982;2023-11-21T12:16:38;6.72;;;4.22;;
50363;SDS011;36272;59.400;17.982;2023-11-21T12:21:40;5.00;;;3.45;;
50363;SDS011;36272;59.400;17.982;2023-11-21T12:26:42;4.72;;;3.40;;
50363;SDS011;36272;59.400;17.982;2023-11-21T12:31:45;3.90;;;3.08;;
50363;SDS011;36272;59.400;17.982;2023-11-21T12:36:47;4.53;;;2.45;;
50363;SDS011;36272;59.400;17.982;2023-11-21T12:41:50;3.85;;;2.40;;
50363;SDS011;36272;59.400;17.982;2023-11-21T12:46:52;3.30;;;2.15;;
50363;SDS011;36272;59.400;17.982;2023-11-21T12:51:54;2.67;;;2.15;;
50363;SDS011;36272;59.400;17.982;2023-11-21T12:56:59;3.13;;;2.05;;
50363;SDS011;36272;59.400;17.982;2023-11-21T13:02:01;3.42;;;1.83;;
50363;SDS011;36272;59.400;17.982;2023-11-21T13:07:06;3.30;;;1.90;;
50363;SDS011;36272;59.400;17.982;2023-11-21T13:12:15;5.50;;;2.35;;
50363;SDS011;36272;59.400;17.982;2023-11-21T13:17:19;3.03;;;2.10;;
50363;SDS011;36272;59.400;17.982;2023-11-21T13:22:23;3.55;;;2.03;;
50363;SDS011;36272;59.400;17.982;2023-11-21T13:27:26;2.80;;;2.22;;
50363;SDS011;36272;59.400;17.982;2023-11-21T13:32:27;2.97;;;2.13;;
50363;SDS011;36272;59.400;17.982;2023-11-21T13:37:30;3.10;;;1.92;;
50363;SDS011;36272;59.400;17.982;2023-11-21T13:42:33;2.88;;;2.25;;
50363;SDS011;36272;59.400;17.982;2023-11-21T13:47:35;5.35;;;2.60;;
50363;SDS011;36272;59.400;17.982;2023-11-21T13:52:39;3.13;;;2.42;;
50363;SDS011;36272;59.400;17.982;2023-11-21T13:57:41;3.95;;;2.53;;
50363;SDS011;36272;59.400;17.982;2023-11-21T14:02:49;3.65;;;2.67;;
50363;SDS011;36272;59.400;17.982;2023-11-21T14:07:50;4.38;;;2.40;;
50363;SDS011;36272;59.400;17.982;2023-11-21T14:12:54;3.28;;;2.40;;
50363;SDS011;36272;59.400;17.982;2023-11-21T14:17:55;2.83;;;2.40;;
50363;SDS011;36272;59.400;17.982;2023-11-21T14:22:57;3.33;;;2.33;;
50363;SDS011;36272;59.400;17.982;2023-11-21T14:27:59;3.50;;;2.47;;
50363;SDS011;36272;59.400;17.982;2023-11-21T14:33:01;4.75;;;2.60;;
50363;SDS011;36272;59.400;17.982;2023-11-21T14:38:03;3.75;;;2.45;;
50363;SDS011;36272;59.400;17.982;2023-11-21T14:43:06;5.70;;;2.63;;
50363;SDS011;36272;59.400;17.982;2023-11-21T14:48:07;4.95;;;2.95;;
50363;SDS011;36272;59.400;17.982;2023-11-21T14:53:17;4.20;;;2.88;;
50363;SDS011;36272;59.400;17.982;2023-11-21T14:58:35;3.88;;;2.63;;
50363;SDS011;36272;59.400;17.982;2023-11-21T15:03:39;5.13;;;3.15;;
50363;SDS011;36272;59.400;17.982;2023-11-21T15:08:51;4.47;;;3.03;;
50363;SDS011;36272;59.400;17.982;2023-11-21T15:14:01;4.65;;;2.70;;
50363;SDS011;36272;59.400;17.982;2023-11-21T15:19:08;3.75;;;2.70;;
50363;SDS011;36272;59.400;17.982;2023-11-21T15:24:10;4.18;;;2.60;;
50363;SDS011;36272;59.400;17.982;2023-11-21T15:29:12;4.00;;;2.80;;
50363;SDS011;36272;59.400;17.982;2023-11-21T15:34:15;5.57;;;3.22;;
50363;SDS011;36272;59.400;17.982;2023-11-21T15:39:16;5.05;;;3.28;;
50363;SDS011;36272;59.400;17.982;2023-11-21T15:44:21;8.50;;;3.60;;
50363;SDS011;36272;59.400;17.982;2023-11-21T15:49:23;5.72;;;3.35;;
50363;SDS011;36272;59.400;17.982;2023-11-21T15:54:25;4.40;;;3.00;;
50363;SDS011;36272;59.400;17.982;2023-11-21T15:59:28;4.45;;;2.92;;
50363;SDS011;36272;59.400;17.982;2023-11-21T16:04:32;5.78;;;3.20;;
50363;SDS011;36272;59.400;17.982;2023-11-21T16:09:34;8.32;;;3.72;;
50363;SDS011;36272;59.400;17.982;2023-11-21T16:14:36;5.65;;;3.05;;
50363;SDS011;36272;59.400;17.982;2023-11-21T16:19:46;6.28;;;3.75;;
50363;SDS011;36272;59.400;17.982;2023-11-21T16:24:48;5.70;;;3.80;;
50363;SDS011;36272;59.400;17.982;2023-11-21T16:29:50;8.63;;;4.35;;
50363;SDS011;36272;59.400;17.982;2023-11-21T16:34:52;8.93;;;4.65;;
50363;SDS011;36272;59.400;17.982;2023-11-21T16:39:53;12.68;;;5.63;;
50363;SDS011;36272;59.400;17.982;2023-11-21T16:44:55;8.93;;;5.15;;
50363;SDS011;36272;59.400;17.982;2023-11-21T16:49:57;11.90;;;5.82;;
50363;SDS011;36272;59.400;17.982;2023-11-21T16:55:01;13.80;;;5.75;;
50363;SDS011;36272;59.400;17.982;2023-11-21T17:00:03;10.80;;;5.82;;
50363;SDS011;36272;59.400;17.982;2023-11-21T17:05:08;7.93;;;5.15;;
50363;SDS011;36272;59.400;17.982;2023-11-21T17:10:10;11.48;;;5.13;;
50363;SDS011;36272;59.400;17.982;2023-11-21T17:15:13;8.18;;;5.03;;
50363;SDS011;36272;59.400;17.982;2023-11-21T17:20:15;9.00;;;4.65;;
50363;SDS011;36272;59.400;17.982;2023-11-21T17:25:18;8.18;;;3.88;;
50363;SDS011;36272;59.400;17.982;2023-11-21T17:30:19;5.68;;;3.53;;
50363;SDS011;36272;59.400;17.982;2023-11-21T17:35:21;5.35;;;2.70;;
50363;SDS011;36272;59.400;17.982;2023-11-21T17:40:29;6.65;;;2.90;;
50363;SDS011;36272;59.400;17.982;2023-11-21T17:45:31;3.78;;;2.15;;
50363;SDS011;36272;59.400;17.982;2023-11-21T17:50:36;5.38;;;2.60;;
50363;SDS011;36272;59.400;17.982;2023-11-21T17:55:38;8.68;;;3.35;;
50363;SDS011;36272;59.400;17.982;2023-11-21T18:00:42;3.70;;;2.25;;
50363;SDS011;36272;59.400;17.982;2023-11-21T18:05:46;5.07;;;2.45;;
50363;SDS011;36272;59.400;17.982;2023-11-21T18:10:48;2.53;;;2.00;;
50363;SDS011;36272;59.400;17.982;2023-11-21T18:15:50;2.50;;;1.67;;
50363;SDS011;36272;59.400;17.982;2023-11-21T18:20:52;3.22;;;1.80;;
50363;SDS011;36272;59.400;17.982;2023-11-21T18:25:56;2.92;;;2.00;;
50363;SDS011;36272;59.400;17.982;2023-11-21T18:30:58;2.30;;;1.70;;
50363;SDS011;36272;59.400;17.982;2023-11-21T18:36:00;3.40;;;2.05;;
50363;SDS011;36272;59.400;17.982;2023-11-21T18:41:01;4.00;;;1.88;;
50363;SDS011;36272;59.400;17.982;2023-11-21T18:46:03;3.78;;;2.08;;
50363;SDS011;36272;59.400;17.982;2023-11-21T18:51:07;2.90;;;2.00;;
50363;SDS011;36272;59.400;17.982;2023-11-21T18:56:17;3.35;;;1.88;;
50363;SDS011;36272;59.400;17.982;2023-11-21T19:01:29;3.05;;;2.00;;
50363;SDS011;36272;59.400;17.982;2023-11-21T19:06:31;6.30;;;2.30;;
50363;SDS011;36272;59.400;17.982;2023-11-21T19:11:33;3.13;;;1.88;;
50363;SDS011;36272;59.400;17.982;2023-11-21T19:16:35;2.97;;;1.95;;
50363;SDS011;36272;59.400;17.982;2023-11-21T19:21:43;4.03;;;2.70;;
50363;SDS011;36272;59.400;17.982;2023-11-21T19:26:46;4.85;;;2.00;;
50363;SDS011;36272;59.400;17.982;2023-11-21T19:31:48;3.50;;;2.00;;
50363;SDS011;36272;59.400;17.982;2023-11-21T19:36:50;2.58;;;1.90;;
50363;SDS011;36272;59.400;17.982;2023-11-21T19:41:52;1.85;;;1.65;;
50363;SDS011;36272;59.400;17.982;2023-11-21T19:46:54;3.08;;;1.80;;
50363;SDS011;36272;59.400;17.982;2023-11-21T19:51:56;2.78;;;1.85;;
50363;SDS011;36272;59.400;17.982;2023-11-21T19:56:58;2.30;;;1.60;;
50363;SDS011;36272;59.400;17.982;2023-11-21T20:02:05;2.25;;;1.70;;
50363;SDS011;36272;59.400;17.982;2023-11-21T20:07:07;3.15;;;1.63;;
50363;SDS011;36272;59.400;17.982;2023-11-21T20:12:08;3.42;;;1.70;;
50363;SDS011;36272;59.400;17.982;2023-11-21T20:17:10;2.40;;;1.10;;
50363;SDS011;36272;59.400;17.982;2023-11-21T20:22:12;4.05;;;1.40;;
50363;SDS011;36272;59.400;17.982;2023-11-21T20:27:16;3.70;;;1.90;;
50363;SDS011;36272;59.400;17.982;2023-11-21T20:32:18;4.20;;;1.20;;
50363;SDS011;36272;59.400;17.982;2023-11-21T20:37:25;2.88;;;1.30;;
50363;SDS011;36272;59.400;17.982;2023-11-21T20:42:26;2.80;;;1.20;;
50363;SDS011;36272;59.400;17.982;2023-11-21T20:47:29;1.70;;;1.13;;
50363;SDS011;36272;59.400;17.982;2023-11-21T20:52:31;3.08;;;1.40;;
50363;SDS011;36272;59.400;17.982;2023-11-21T20:57:34;1.80;;;1.30;;
50363;SDS011;36272;59.400;17.982;2023-11-21T21:02:41;3.00;;;1.40;;
50363;SDS011;36272;59.400;17.982;2023-11-21T21:07:43;1.48;;;1.20;;
50363;SDS011;36272;59.400;17.982;2023-11-21T21:12:44;4.70;;;1.70;;
50363;SDS011;36272;59.400;17.982;2023-11-21T21:17:46;2.58;;;1.60;;
50363;SDS011;36272;59.400;17.982;2023-11-21T21:22:48;2.92;;;1.70;;
50363;SDS011;36272;59.400;17.982;2023-11-21T21:27:49;4.70;;;2.00;;
50363;SDS011;36272;59.400;17.982;2023-11-21T21:32:51;3.55;;;1.95;;
50363;SDS011;36272;59.400;17.982;2023-11-21T21:37:54;5.65;;;2.17;;
50363;SDS011;36272;59.400;17.982;2023-11-21T21:43:05;3.83;;;2.17;;
50363;SDS011;36272;59.400;17.982;2023-11-21T21:48:07;2.95;;;1.95;;
50363;SDS011;36272;59.400;17.982;2023-11-21T21:53:09;3.63;;;2.00;;
50363;SDS011;36272;59.400;17.982;2023-11-21T21:58:13;3.63;;;1.90;;
50363;SDS011;36272;59.400;17.982;2023-11-21T22:03:15;3.30;;;2.28;;
50363;SDS011;36272;59.400;17.982;2023-11-21T22:08:16;3.63;;;2.50;;
50363;SDS011;36272;59.400;17.982;2023-11-21T22:13:18;3.72;;;2.20;;
50363;SDS011;36272;59.400;17.982;2023-11-21T22:18:20;5.68;;;2.13;;
50363;SDS011;36272;59.400;17.982;2023-11-21T22:23:22;5.97;;;2.85;;
50363;SDS011;36272;59.400;17.982;2023-11-21T22:28:23;8.98;;;3.40;;
50363;SDS011;36272;59.400;17.982;2023-11-21T22:33:25;6.90;;;3.33;;
50363;SDS011;36272;59.400;17.982;2023-11-21T22:38:27;8.35;;;3.08;;
50363;SDS011;36272;59.400;17.982;2023-11-21T22:43:29;6.25;;;3.58;;
50363;SDS011;36272;59.400;17.982;2023-11-21T22:48:32;7.70;;;3.55;;
50363;SDS011;36272;59.400;17.982;2023-11-21T22:53:34;10.02;;;3.58;;
50363;SDS011;36272;59.400;17.982;2023-11-21T22:58:35;8.35;;;4.22;;
50363;SDS011;36272;59.400;17.982;2023-11-21T23:03:37;6.93;;;4.07;;
50363;SDS011;36272;59.400;17.982;2023-11-21T23:08:38;8.20;;;4.22;;
50363;SDS011;36272;59.400;17.982;2023-11-21T23:13:43;8.07;;;4.18;;
50363;SDS011;36272;59.400;17.982;2023-11-21T23:18:45;8.43;;;3.43;;
50363;SDS011;36272;59.400;17.982;2023-11-21T23:23:50;8.45;;;4.32;;
50363;SDS011;36272;59.400;17.982;2023-11-21T23:28:52;8.90;;;4.55;;
50363;SDS011;36272;59.400;17.982;2023-11-21T23:33:54;8.57;;;4.55;;
50363;SDS011;36272;59.400;17.982;2023-11-21T23:38:55;9.55;;;4.75;;
50363;SDS011;36272;59.400;17.982;2023-11-21T23:43:57;9.45;;;3.92;;
50363;SDS011;36272;59.400;17.982;2023-11-21T23:49:01;8.10;;;4.30;;
50363;SDS011;36272;59.400;17.982;2023-11-21T23:54:07;10.68;;;4.55;;
50363;SDS011;36272;59.400;17.982;2023-11-21T23:59:08;6.45;;;3.42;;
